Time;durP1;ratioP1;P1;durP2;ratioP2;P2;SDS_P1;SDS_P2;PMS_P1;PMS_P2;Temp;Humidity;BMP_temperature;BMP_pressure;BME280_temperature;BME280_humidity;BME280_pressure;Samples;Min_cycle;Max_cycle;Signal;HPM_P1;HPM_P2
2024/04/11 00:00:40;;;;;;;3.50;1.33;;;;;;;17.96;53.37;102683.34;11277872;26;20268;-59
2024/04/11 00:05:41;;;;;;;2.73;1.20;;;;;;;17.96;53.43;102685.22;11259018;26;20221;-59
2024/04/11 00:10:41;;;;;;;3.53;1.73;;;;;;;17.96;53.05;102679.84;11267559;26;20308;-60
2024/04/11 00:15:42;;;;;;;3.05;1.30;;;;;;;17.95;52.77;102679.03;11307468;26;20260;-59
2024/04/11 00:20:43;;;;;;;2.70;1.40;;;;;;;17.93;53.20;102666.91;11351236;26;19998;-59
2024/04/11 00:25:51;;;;;;;2.53;1.27;;;;;;;17.92;52.50;102668.78;11351683;26;20013;-59
2024/04/11 00:30:53;;;;;;;3.70;1.35;;;;;;;17.93;53.19;102659.69;11352502;26;19994;-59
2024/04/11 00:35:53;;;;;;;3.28;1.05;;;;;;;17.92;52.87;102657.25;11284594;26;20002;-59
2024/04/11 00:40:57;;;;;;;5.97;1.92;;;;;;;17.92;52.45;102666.09;11252512;26;20558;-59
2024/04/11 00:45:58;;;;;;;4.80;1.10;;;;;;;17.91;53.06;102664.47;11276216;26;20014;-59
2024/04/11 00:51:00;;;;;;;4.28;0.98;;;;;;;17.89;53.15;102671.97;11257344;26;19995;-59
2024/04/11 00:56:00;;;;;;;1.98;1.05;;;;;;;17.89;52.54;102676.53;11228996;26;20067;-59
2024/04/11 01:01:01;;;;;;;2.78;1.15;;;;;;;17.88;53.12;102674.88;11275592;26;20009;-59
2024/04/11 01:06:03;;;;;;;6.13;1.50;;;;;;;17.88;52.74;102678.41;11276075;26;19999;-59
2024/04/11 01:11:04;;;;;;;4.53;1.88;;;;;;;17.87;52.43;102671.38;11256755;26;20014;-59
2024/04/11 01:16:04;;;;;;;3.28;1.35;;;;;;;17.86;52.66;102656.31;11275217;26;20635;-59
2024/04/11 01:21:05;;;;;;;3.92;1.20;;;;;;;17.86;52.45;102640.22;11275851;26;20006;-59
2024/04/11 01:26:07;;;;;;;4.37;1.10;;;;;;;17.85;52.79;102649.34;11314424;26;19998;-59
2024/04/11 01:31:07;;;;;;;2.70;1.42;;;;;;;17.83;52.89;102636.16;11282784;26;20275;-59
2024/04/11 01:36:08;;;;;;;2.33;1.15;;;;;;;17.83;52.19;102638.84;11277473;26;20009;-59
2024/04/11 01:41:08;;;;;;;2.75;1.55;;;;;;;17.81;52.53;102635.59;11274820;26;20007;-59
2024/04/11 01:46:09;;;;;;;3.07;1.80;;;;;;;17.81;52.26;102629.41;11255025;26;19995;-59
2024/04/11 01:51:09;;;;;;;2.07;1.00;;;;;;;17.81;52.48;102619.50;11257795;26;20273;-59
2024/04/11 01:56:11;;;;;;;3.60;1.30;;;;;;;17.80;52.23;102619.75;11274040;26;20261;-59
2024/04/11 02:01:13;;;;;;;3.53;1.40;;;;;;;17.80;53.07;102622.44;11274632;26;19995;-59
2024/04/11 02:06:13;;;;;;;2.63;1.42;;;;;;;17.78;52.83;102620.00;11274230;26;20009;-59
2024/04/11 02:11:13;;;;;;;3.37;1.20;;;;;;;17.78;52.78;102620.00;11260131;26;20328;-59
2024/04/11 02:16:13;;;;;;;2.63;1.13;;;;;;;17.77;52.97;102626.41;11273558;26;20212;-59
2024/04/11 02:21:14;;;;;;;2.43;1.07;;;;;;;17.75;52.59;102625.81;11273955;26;20548;-59
2024/04/11 02:26:14;;;;;;;2.00;0.97;;;;;;;17.75;52.74;102633.06;11270189;26;20225;-59
2024/04/11 02:31:14;;;;;;;2.67;1.25;;;;;;;17.75;52.87;102633.06;11257873;26;20726;-59
2024/04/11 02:36:15;;;;;;;4.40;1.53;;;;;;;17.75;52.42;102643.78;11275552;26;20071;-59
2024/04/11 02:41:16;;;;;;;4.17;1.10;;;;;;;17.73;52.59;102635.19;11271197;26;20311;-59
2024/04/11 02:46:16;;;;;;;2.28;1.20;;;;;;;17.72;52.69;102641.59;11272306;26;20265;-59
2024/04/11 02:51:18;;;;;;;3.87;2.03;;;;;;;17.73;52.90;102646.72;11273309;26;20346;-59
2024/04/11 02:56:18;;;;;;;1.98;0.95;;;;;;;17.70;53.34;102623.06;11230131;26;20264;-59
2024/04/11 03:01:18;;;;;;;1.80;1.07;;;;;;;17.70;52.39;102630.31;11263553;26;19998;-59
2024/04/11 03:06:21;;;;;;;3.20;1.40;;;;;;;17.70;52.99;102635.66;11271502;26;20224;-59
2024/04/11 03:11:25;;;;;;;5.63;1.23;;;;;;;17.69;53.00;102634.03;11263056;26;20242;-59
2024/04/11 03:16:30;;;;;;;2.47;0.80;;;;;;;17.68;52.81;102646.63;11322710;26;20009;-59
2024/04/11 03:21:30;;;;;;;2.28;1.00;;;;;;;17.68;52.89;102646.63;11269153;26;19995;-59
2024/04/11 03:26:31;;;;;;;2.58;1.23;;;;;;;17.67;52.59;102634.25;11271427;26;19995;-59
2024/04/11 03:31:31;;;;;;;3.70;1.23;;;;;;;17.69;53.64;102634.88;11260771;26;20013;-60
2024/04/11 03:36:32;;;;;;;3.95;0.90;;;;;;;17.70;53.34;102614.22;11225123;26;20003;-60
2024/04/11 03:41:34;;;;;;;2.65;0.93;;;;;;;17.72;53.51;102610.22;11216143;26;20025;-59
2024/04/11 03:46:36;;;;;;;3.15;0.90;;;;;;;17.71;53.66;102602.41;11221412;26;20011;-59
2024/04/11 03:51:41;;;;;;;3.25;1.25;;;;;;;17.71;53.34;102608.59;11219550;26;20014;-59
2024/04/11 03:56:41;;;;;;;4.38;0.93;;;;;;;17.71;53.49;102597.88;11225040;26;20866;-59
2024/04/11 04:01:42;;;;;;;3.63;1.40;;;;;;;17.71;53.92;102599.72;11256908;26;20026;-59
2024/04/11 04:06:42;;;;;;;5.00;1.00;;;;;;;17.68;53.73;102595.66;11262988;26;20257;-59
2024/04/11 04:11:43;;;;;;;3.65;1.30;;;;;;;17.67;54.19;102591.34;11243766;26;20049;-59
2024/04/11 04:16:44;;;;;;;2.55;1.13;;;;;;;17.66;53.30;102578.97;11265582;26;20010;-58
2024/04/11 04:21:44;;;;;;;3.95;1.15;;;;;;;17.65;53.18;102566.63;11267337;26;20010;-58
2024/04/11 04:26:44;;;;;;;2.73;1.03;;;;;;;17.64;53.56;102573.06;11267031;26;20327;-58
2024/04/11 04:31:45;;;;;;;2.90;1.38;;;;;;;17.63;53.21;102568.72;11276457;26;20786;-59
2024/04/11 04:36:46;;;;;;;2.13;0.80;;;;;;;17.62;52.91;102568.97;11257995;26;19995;-59
2024/04/11 04:41:47;;;;;;;3.38;1.25;;;;;;;17.61;53.35;102565.47;11307510;26;20009;-59
2024/04/11 04:46:48;;;;;;;2.95;1.42;;;;;;;17.61;53.17;102568.16;11281191;26;20549;-59
2024/04/11 04:51:48;;;;;;;3.28;0.95;;;;;;;17.60;53.38;102574.56;11274872;26;19991;-59
2024/04/11 04:56:50;;;;;;;2.58;1.10;;;;;;;17.61;53.59;102578.88;11264649;26;19994;-59
2024/04/11 05:01:51;;;;;;;4.10;1.40;;;;;;;17.59;53.52;102583.69;11272560;26;19995;-59
2024/04/11 05:06:52;;;;;;;2.20;1.10;;;;;;;17.58;54.14;102591.97;11273582;26;19991;-59
2024/04/11 05:11:52;;;;;;;1.90;1.00;;;;;;;17.59;54.25;102604.34;11258824;26;20565;-58
2024/04/11 05:16:53;;;;;;;2.77;0.90;;;;;;;17.58;53.33;102616.13;11255209;26;20017;-58
2024/04/11 05:21:53;;;;;;;6.28;1.63;;;;;;;17.60;53.11;102622.88;11258269;26;20260;-59
2024/04/11 05:26:54;;;;;;;5.57;1.50;;;;;;;17.71;53.46;102624.69;11274925;26;20519;-60
2024/04/11 05:31:56;;;;;;;4.83;1.43;;;;;;;17.80;53.22;102636.66;11325077;26;19994;-59
2024/04/11 05:36:57;;;;;;;4.05;1.60;;;;;;;17.83;53.59;102640.72;11274442;26;20213;-59
2024/04/11 05:41:57;;;;;;;10.95;2.20;;;;;;;17.84;53.74;102645.03;11258287;26;20039;-59
2024/04/11 05:46:58;;;;;;;8.73;2.00;;;;;;;17.76;53.63;102646.25;11324865;26;20005;-60
2024/04/11 05:52:00;;;;;;;7.38;1.58;;;;;;;17.69;54.46;102648.28;11350657;26;19990;-60
2024/04/11 05:57:00;;;;;;;15.50;2.45;;;;;;;17.67;54.87;102654.91;11349403;26;19990;-60
2024/04/11 06:02:01;;;;;;;10.87;2.37;;;;;;;17.66;54.77;102669.38;11313103;26;20006;-59
2024/04/11 06:07:01;;;;;;;9.87;2.33;;;;;;;17.65;54.63;102670.44;11314887;26;20628;-57
2024/04/11 06:12:02;;;;;;;9.70;2.17;;;;;;;17.66;54.66;102669.38;11312334;26;20303;-58
2024/04/11 06:17:02;;;;;;;14.60;2.92;;;;;;;17.65;55.36;102673.13;11239240;26;20663;-58
2024/04/11 06:22:06;;;;;;;6.47;1.90;;;;;;;17.63;55.48;102678.69;11271742;26;19998;-58
2024/04/11 06:27:06;;;;;;;11.18;3.58;;;;;;;17.61;55.06;102678.13;11286924;26;20012;-58
2024/04/11 06:32:07;;;;;;;8.05;1.85;;;;;;;17.60;55.14;102691.78;11306012;26;20007;-58
2024/04/11 06:37:11;;;;;;;6.03;2.08;;;;;;;17.59;54.78;102699.03;11272912;26;19995;-58
2024/04/11 06:42:14;;;;;;;9.88;2.67;;;;;;;17.58;54.80;102689.34;11272943;26;20018;-58
2024/04/11 06:47:16;;;;;;;5.80;1.73;;;;;;;17.57;54.66;102682.38;11269053;26;20887;-59
2024/04/11 06:52:16;;;;;;;3.88;1.15;;;;;;;17.57;55.04;102679.69;11272552;26;20026;-58
2024/04/11 06:57:21;;;;;;;16.77;3.60;;;;;;;17.55;55.06;102687.16;11270353;26;19998;-58
2024/04/11 07:02:24;;;;;;;7.35;1.63;;;;;;;17.55;54.84;102697.88;11271758;26;20220;-58
2024/04/11 07:07:27;;;;;;;5.93;1.30;;;;;;;17.53;54.71;102716.91;11271093;26;19999;-58
2024/04/11 07:12:30;;;;;;;5.20;1.52;;;;;;;17.52;54.96;102707.25;11260920;26;19999;-58
2024/04/11 07:17:32;;;;;;;8.57;1.50;;;;;;;17.51;55.20;102721.69;11271018;26;20002;-59
2024/04/11 07:22:33;;;;;;;5.15;1.63;;;;;;;17.52;55.36;102727.84;11271517;26;20031;-57
2024/04/11 07:27:35;;;;;;;3.60;1.58;;;;;;;17.53;55.03;102729.50;11270109;26;19999;-58
2024/04/11 07:32:35;;;;;;;4.07;1.40;;;;;;;17.52;54.83;102731.38;11283066;26;20013;-59
2024/04/11 07:37:37;;;;;;;4.23;1.37;;;;;;;17.52;55.69;102739.44;11270770;26;20013;-58
2024/04/11 07:42:55;;;;;;;5.30;1.20;;;;;;;17.51;55.10;102740.44;11246999;26;20232;-58
2024/04/11 07:47:58;;;;;;;3.28;1.40;;;;;;;17.51;55.00;102740.44;11269887;26;19995;-58
2024/04/11 07:52:59;;;;;;;4.40;1.55;;;;;;;17.50;55.20;102743.38;11255981;26;20010;-58
2024/04/11 07:58:05;;;;;;;4.40;1.38;;;;;;;17.50;55.54;102751.41;11267398;26;19999;-59
2024/04/11 08:03:07;;;;;;;4.55;1.38;;;;;;;17.49;55.33;102766.69;11261264;26;20018;-58
2024/04/11 08:08:07;;;;;;;3.58;1.55;;;;;;;17.49;54.99;102776.63;11268822;26;20039;-58
2024/04/11 08:13:08;;;;;;;4.15;1.63;;;;;;;17.46;55.32;102783.28;11266077;26;19995;-58
2024/04/11 08:18:08;;;;;;;4.93;1.45;;;;;;;17.46;55.05;102783.28;11319520;26;20010;-58
2024/04/11 08:23:11;;;;;;;4.97;1.45;;;;;;;17.45;55.23;102787.00;11351575;26;20034;-58
2024/04/11 08:28:13;;;;;;;1.73;1.13;;;;;;;17.45;55.11;102781.66;11348698;26;20009;-58
2024/04/11 08:33:20;;;;;;;4.85;1.40;;;;;;;17.45;55.08;102789.69;11324350;26;20747;-58
2024/04/11 08:38:23;;;;;;;2.88;1.48;;;;;;;17.48;55.44;102796.44;11275427;26;20304;-58
2024/04/11 08:43:27;;;;;;;3.58;1.10;;;;;;;17.48;55.85;102804.50;11276161;26;20031;-58
2024/04/11 08:48:27;;;;;;;3.63;1.42;;;;;;;17.47;55.42;102803.69;11275349;26;20006;-58
2024/04/11 08:53:29;;;;;;;2.88;1.13;;;;;;;17.47;55.01;102811.72;11289906;26;20007;-59
2024/04/11 08:58:29;;;;;;;6.97;1.30;;;;;;;17.47;55.73;102808.22;11241528;26;20006;-58
2024/04/11 09:03:30;;;;;;;5.03;1.10;;;;;;;17.47;55.35;102810.91;11276001;26;20022;-58
2024/04/11 09:08:31;;;;;;;3.97;1.60;;;;;;;17.46;55.36;102807.41;11276120;26;20217;-59
2024/04/11 09:13:31;;;;;;;3.47;0.90;;;;;;;17.46;55.52;102809.28;11265103;26;19998;-59
2024/04/11 09:18:32;;;;;;;2.77;1.10;;;;;;;17.45;55.53;102829.91;11275309;26;20048;-58
2024/04/11 09:23:53;;;;;;;4.88;1.92;;;;;;;17.45;56.21;102839.84;11273598;26;20299;-58
2024/04/11 09:28:54;;;;;;;4.53;1.13;;;;;;;17.43;55.72;102847.31;11273488;26;19999;-58
2024/04/11 09:33:55;;;;;;;4.50;1.60;;;;;;;17.44;55.75;102843.56;11285367;26;20002;-59
2024/04/11 09:39:12;;;;;;;2.95;1.33;;;;;;;17.43;55.94;102842.75;11268933;26;19990;-58
2024/04/11 09:44:16;;;;;;;4.10;1.10;;;;;;;17.42;55.83;102854.53;11275158;26;20415;-58
2024/04/11 09:49:23;;;;;;;3.72;0.80;;;;;;;17.41;55.90;102869.00;11273379;26;19999;-59
2024/04/11 09:54:24;;;;;;;4.05;1.63;;;;;;;17.40;56.28;102858.47;11251805;26;20334;-58
2024/04/11 09:59:26;;;;;;;2.28;1.00;;;;;;;17.39;56.20;102854.97;11258176;26;20005;-58
2024/04/11 10:04:35;;;;;;;3.92;1.13;;;;;;;17.40;56.32;102870.03;11273811;26;19994;-58
2024/04/11 10:09:46;;;;;;;3.55;1.13;;;;;;;17.38;56.08;102864.09;11271613;26;19995;-58
2024/04/11 10:14:51;;;;;;;2.95;1.23;;;;;;;17.40;56.38;102874.56;11270045;26;20003;-58
2024/04/11 10:19:53;;;;;;;2.95;1.27;;;;;;;17.40;56.53;102882.63;11247781;26;19999;-57
2024/04/11 10:25:06;;;;;;;3.63;1.63;;;;;;;17.38;56.63;102890.09;11273255;26;20010;-57
2024/04/11 10:30:09;;;;;;;2.55;1.30;;;;;;;17.39;56.29;102895.22;11271915;26;20002;-58
2024/04/11 10:35:10;;;;;;;3.35;1.58;;;;;;;17.39;56.68;102900.56;11282471;26;19998;-57
2024/04/11 10:40:15;;;;;;;2.72;1.20;;;;;;;17.38;56.52;102908.84;11271547;26;19998;-58
2024/04/11 10:45:18;;;;;;;3.17;1.35;;;;;;;17.37;57.08;102913.41;11264620;26;20071;-58
2024/04/11 10:50:23;;;;;;;3.20;1.17;;;;;;;17.36;57.04;102906.41;11237357;26;20011;-58
2024/04/11 10:55:28;;;;;;;4.32;1.80;;;;;;;17.36;56.57;102908.28;11291287;26;19997;-59
2024/04/11 11:01:07;;;;;;;3.80;1.35;;;;;;;17.40;56.43;102907.56;11347306;26;19994;-59
2024/04/11 11:05:48;;;;;;;2.72;1.15;;;;;;;17.41;56.85;102916.47;11346088;26;19994;-60
2024/04/11 11:10:49;;;;;;;2.73;1.30;;;;;;;17.42;56.69;102912.72;11328349;26;20791;-59
2024/04/11 11:15:55;;;;;;;1.77;0.93;;;;;;;17.42;56.82;102913.53;11260789;26;20313;-59
2024/04/11 11:20:59;;;;;;;2.42;1.83;;;;;;;17.41;57.21;102909.22;11270976;26;20358;-57
2024/04/11 11:26:01;;;;;;;3.08;1.33;;;;;;;17.41;56.96;102914.59;11270856;26;20081;-59
2024/04/11 11:31:01;;;;;;;2.15;1.23;;;;;;;17.41;57.29;102916.47;11220726;26;19998;-59
2024/04/11 11:36:04;;;;;;;4.13;1.50;;;;;;;17.40;56.74;102909.44;11273079;26;20346;-59
2024/04/11 11:41:04;;;;;;;3.00;1.75;;;;;;;17.40;56.74;102914.78;11269655;26;20007;-59
2024/04/11 11:46:17;;;;;;;3.83;1.50;;;;;;;17.40;57.15;102930.88;11256675;26;19995;-59
2024/04/11 11:51:19;;;;;;;3.05;1.40;;;;;;;17.40;56.94;102920.16;11277005;26;20225;-59
2024/04/11 11:56:22;;;;;;;2.60;2.08;;;;;;;17.38;57.11;102928.44;11275844;26;20071;-59
2024/04/11 12:01:29;;;;;;;2.75;1.75;;;;;;;17.37;57.23;102918.78;11277022;26;19995;-57
2024/04/11 12:06:35;;;;;;;2.95;1.52;;;;;;;17.37;57.40;102920.63;11276976;26;20013;-59
2024/04/11 12:12:07;;;;;;;2.85;1.60;;;;;;;17.37;57.76;102926.81;11265066;26;19999;-59
2024/04/11 12:17:10;;;;;;;2.53;1.45;;;;;;;17.35;57.51;102922.75;11254904;26;19999;-59
2024/04/11 12:22:11;;;;;;;2.55;1.60;;;;;;;17.33;57.36;102925.66;11276283;26;19998;-59
2024/04/11 12:27:13;;;;;;;2.97;1.38;;;;;;;17.34;57.87;102924.59;11276885;26;20007;-58
2024/04/11 12:32:17;;;;;;;2.20;1.00;;;;;;;17.33;57.44;102935.56;11277496;26;20006;-59
2024/04/11 12:37:24;;;;;;;2.85;1.40;;;;;;;17.33;57.94;102933.69;11276374;26;20457;-59
2024/04/11 12:42:29;;;;;;;2.85;1.50;;;;;;;17.34;57.68;102929.97;11275860;26;20021;-59
2024/04/11 12:47:39;;;;;;;3.33;1.60;;;;;;;17.34;57.41;102927.28;11252021;26;20039;-58
2024/04/11 12:52:49;;;;;;;2.42;1.80;;;;;;;17.35;58.01;102936.16;11254886;26;20061;-59
2024/04/11 12:57:51;;;;;;;3.05;1.50;;;;;;;17.33;57.81;102941.75;11274464;26;20039;-58
2024/04/11 13:03:06;;;;;;;2.15;1.38;;;;;;;17.32;58.04;102950.84;11275186;26;20013;-59
2024/04/11 13:08:07;;;;;;;2.58;1.75;;;;;;;17.33;57.85;102955.16;11275040;26;20002;-59
2024/04/11 13:13:12;;;;;;;3.00;2.08;;;;;;;17.34;57.81;102955.97;11263734;26;19998;-58
2024/04/11 13:18:12;;;;;;;2.97;1.35;;;;;;;17.34;58.38;102943.38;11275423;26;20006;-59
2024/04/11 13:23:21;;;;;;;2.17;1.48;;;;;;;17.34;58.27;102943.38;11274567;26;19995;-59
2024/04/11 13:28:30;;;;;;;2.72;1.35;;;;;;;17.34;58.23;102943.38;11274351;26;20346;-58
2024/04/11 13:33:31;;;;;;;2.20;1.65;;;;;;;17.33;58.50;102947.09;11280858;26;20003;-59
2024/04/11 13:38:37;;;;;;;1.87;1.27;;;;;;;17.34;58.59;102950.59;11313219;26;20378;-59
2024/04/11 13:43:38;;;;;;;2.28;1.40;;;;;;;17.34;58.12;102926.47;11284575;26;20797;-57
2024/04/11 13:48:47;;;;;;;2.20;1.70;;;;;;;17.34;58.59;102931.84;11273830;26;20013;-58
2024/04/11 13:53:54;;;;;;;2.83;1.55;;;;;;;17.33;58.11;102932.88;11269951;26;20461;-58
2024/04/11 13:58:58;;;;;;;3.65;1.63;;;;;;;17.32;58.19;102931.25;11250410;26;20619;-58
2024/04/11 14:04:03;;;;;;;2.65;1.55;;;;;;;17.33;58.55;102930.22;11273714;26;20003;-57
2024/04/11 14:09:04;;;;;;;2.90;1.65;;;;;;;17.33;58.58;102927.53;11273672;26;20007;-59
2024/04/11 14:14:04;;;;;;;3.13;1.50;;;;;;;17.32;58.71;102933.94;11261081;26;20487;-59
2024/04/11 14:19:07;;;;;;;2.78;1.40;;;;;;;17.31;58.38;102937.66;11273912;26;20221;-58
2024/04/11 14:24:16;;;;;;;2.70;1.73;;;;;;;17.32;58.45;102928.56;11272419;26;20003;-60
2024/04/11 14:29:22;;;;;;;2.47;1.40;;;;;;;17.30;58.21;102938.72;11272984;26;20276;-59
2024/04/11 14:34:55;;;;;;;3.75;1.83;;;;;;;17.31;58.25;102951.06;11283569;26;19995;-58
2024/04/11 14:39:43;;;;;;;2.72;1.85;;;;;;;17.31;59.09;102951.88;11250879;26;20642;-59
2024/04/11 14:44:44;;;;;;;2.77;1.57;;;;;;;17.31;58.43;102943.03;11227347;26;20009;-59
2024/04/11 14:49:48;;;;;;;2.60;1.48;;;;;;;17.32;58.53;102955.38;11254121;26;20315;-59
2024/04/11 14:54:53;;;;;;;2.17;1.50;;;;;;;17.33;58.39;102952.47;11276646;26;20013;-58
2024/04/11 15:00:17;;;;;;;2.67;1.75;;;;;;;17.33;58.24;102962.38;11296578;26;20082;-58
2024/04/11 15:05:17;;;;;;;3.65;2.17;;;;;;;17.33;58.30;102957.84;11241961;26;19999;-59
2024/04/11 15:10:18;;;;;;;2.73;1.70;;;;;;;17.34;58.04;102969.38;11335446;26;20003;-59
2024/04/11 15:15:24;;;;;;;3.53;1.87;;;;;;;17.33;58.57;102973.94;11251948;26;20269;-59
2024/04/11 15:20:45;;;;;;;3.03;1.95;;;;;;;17.33;59.00;102968.56;11242261;26;21104;-59
2024/04/11 15:25:46;;;;;;;3.05;2.08;;;;;;;17.34;58.78;102972.06;11208332;26;20806;-59
2024/04/11 15:35:49;;;;;;;2.90;2.00;;;;;;;17.33;59.02;102973.94;11279249;26;20492;-59
2024/04/11 15:40:54;;;;;;;2.72;1.80;;;;;;;17.35;58.87;102971.00;11268339;26;20010;-59
2024/04/11 15:46:06;;;;;;;2.88;1.80;;;;;;;17.34;58.51;102972.06;11224772;26;20012;-58
2024/04/11 15:51:07;;;;;;;2.88;1.75;;;;;;;17.33;58.50;102960.50;11276767;26;20009;-57
2024/04/11 15:56:13;;;;;;;3.20;2.13;;;;;;;17.34;58.87;102964.00;11342778;26;19998;-59
2024/04/11 16:01:27;;;;;;;2.83;1.80;;;;;;;17.34;58.61;102964.81;11344908;26;19998;-58
2024/04/11 16:06:31;;;;;;;2.90;2.15;;;;;;;17.34;58.89;102954.09;11270294;26;19999;-58
2024/04/11 16:11:31;;;;;;;10.45;2.50;;;;;;;17.37;59.68;102947.44;11268427;26;20503;-61
2024/04/11 16:16:39;;;;;;;9.35;2.85;;;;;;;17.38;59.71;102938.34;11268187;26;20011;-59
2024/04/11 16:21:44;;;;;;;6.50;2.78;;;;;;;17.42;59.88;102952.94;11317759;26;19998;-59
2024/04/11 16:26:45;;;;;;;9.88;3.00;;;;;;;17.47;60.21;102940.47;11309706;26;20156;-57
2024/04/11 16:31:48;;;;;;;12.45;5.07;;;;;;;17.51;60.23;102933.56;11284762;26;20417;-58
2024/04/11 16:36:48;;;;;;;12.35;4.47;;;;;;;17.51;60.50;102936.25;11275596;26;20002;-57
2024/04/11 16:41:51;;;;;;;8.63;4.90;;;;;;;17.53;59.92;102930.69;11275668;26;20011;-57
2024/04/11 16:46:55;;;;;;;21.83;7.97;;;;;;;17.60;63.08;102928.66;11252341;26;20219;-58
2024/04/11 16:51:56;;;;;;;16.02;8.73;;;;;;;17.55;63.31;102941.97;11307131;26;20497;-57
2024/04/11 16:56:57;;;;;;;10.43;5.75;;;;;;;17.70;64.24;102946.91;11350953;26;19998;-60
2024/04/11 17:02:02;;;;;;;10.57;5.68;;;;;;;17.90;64.48;102959.94;11346710;26;20010;-61
2024/04/11 17:07:14;;;;;;;13.25;5.80;;;;;;;17.97;63.19;102957.94;11321495;26;20013;-62
2024/04/11 17:12:17;;;;;;;14.00;5.43;;;;;;;17.97;62.46;102945.31;11256084;26;20084;-63
2024/04/11 17:17:17;;;;;;;16.00;5.45;;;;;;;17.88;62.18;102945.91;11258947;26;20431;-61
2024/04/11 17:22:19;;;;;;;22.23;7.47;;;;;;;17.81;62.92;102946.88;11275521;26;19995;-62
2024/04/11 17:27:20;;;;;;;15.40;5.65;;;;;;;17.68;62.95;102944.41;11275155;26;20459;-60
2024/04/11 17:32:23;;;;;;;16.30;5.95;;;;;;;17.62;62.15;102960.63;11244085;26;20471;-61
2024/04/11 17:37:39;;;;;;;20.70;6.32;;;;;;;17.58;62.32;102962.97;11224170;26;19998;-61
2024/04/11 17:42:42;;;;;;;22.30;6.22;;;;;;;17.55;62.28;102966.13;11274504;26;20006;-62
2024/04/11 17:47:43;;;;;;;15.48;4.70;;;;;;;17.56;62.66;102977.66;11237448;26;20031;-62
2024/04/11 17:57:47;;;;;;;16.50;5.85;;;;;;;17.48;62.57;102968.09;11274028;26;20075;-61
2024/04/11 18:02:48;;;;;;;17.30;6.03;;;;;;;17.49;61.72;102975.91;11274407;26;20333;-59
2024/04/11 18:07:52;;;;;;;15.57;6.13;;;;;;;17.48;62.12;102990.38;11273767;26;19999;-59
2024/04/11 18:12:53;;;;;;;19.38;5.82;;;;;;;17.46;61.90;102983.59;11261808;26;19999;-59
2024/04/11 18:17:53;;;;;;;15.40;6.40;;;;;;;17.45;61.66;102977.44;11257132;26;19991;-59
2024/04/11 18:22:54;;;;;;;11.20;5.50;;;;;;;17.44;61.20;102978.47;11273379;26;19995;-58
2024/04/11 18:28:00;;;;;;;15.07;5.70;;;;;;;17.43;61.86;102987.56;11273272;26;20006;-59
2024/04/11 18:33:01;;;;;;;16.23;5.30;;;;;;;17.42;61.86;102983.25;11283749;26;20220;-62
2024/04/11 18:38:04;;;;;;;12.80;5.07;;;;;;;17.38;62.12;102984.75;11272302;26;19999;-61
2024/04/11 18:43:22;;;;;;;8.70;5.20;;;;;;;17.37;61.52;102988.50;11277999;26;20078;-60
2024/04/11 18:48:38;;;;;;;12.50;5.35;;;;;;;17.43;61.82;102984.09;11340798;26;20006;-61
2024/04/11 18:53:38;;;;;;;13.55;5.03;;;;;;;17.42;62.01;102988.63;11271386;26;19994;-61
2024/04/11 18:58:43;;;;;;;13.93;5.57;;;;;;;17.42;61.85;102988.63;11237341;26;20743;-60
2024/04/11 19:03:44;;;;;;;10.30;5.63;;;;;;;17.40;61.76;102977.28;11250973;26;20267;-60
2024/04/11 19:08:48;;;;;;;12.93;4.85;;;;;;;17.39;61.54;102983.72;11345755;26;20006;-61
2024/04/11 19:13:54;;;;;;;10.32;4.28;;;;;;;17.36;61.24;102976.13;11261060;26;19999;-60
2024/04/11 19:18:56;;;;;;;9.68;4.85;;;;;;;17.36;61.59;102978.00;11278230;26;20067;-61
2024/04/11 19:24:14;;;;;;;9.40;4.93;;;;;;;17.34;61.74;102986.28;11301752;26;20403;-61
2024/04/11 19:29:22;;;;;;;8.10;5.32;;;;;;;17.35;61.60;102987.91;11260461;26;20006;-59
2024/04/11 19:34:25;;;;;;;6.82;4.88;;;;;;;17.41;61.50;102978.13;11292952;26;20022;-61
2024/04/11 19:39:28;;;;;;;10.73;4.72;;;;;;;17.42;61.99;102991.31;11274789;26;19995;-62
2024/04/11 19:44:30;;;;;;;11.55;5.32;;;;;;;17.40;62.16;102988.03;11300480;26;20017;-61
2024/04/11 19:49:34;;;;;;;11.50;4.93;;;;;;;17.38;61.76;102986.63;11263815;26;20958;-61
2024/04/11 19:54:44;;;;;;;10.20;5.93;;;;;;;17.38;61.92;102992.00;11272267;26;20326;-60
2024/04/11 19:59:44;;;;;;;10.10;5.28;;;;;;;17.37;62.20;102991.19;11229206;26;19996;-62
2024/04/11 20:04:44;;;;;;;12.93;5.60;;;;;;;17.37;61.79;102985.81;11282189;26;19991;-61
2024/04/11 20:09:49;;;;;;;9.43;5.33;;;;;;;17.35;62.12;102979.06;11311317;26;20212;-61
2024/04/11 20:14:50;;;;;;;10.90;5.22;;;;;;;17.35;61.84;102985.22;11295502;26;20279;-61
2024/04/11 20:19:58;;;;;;;9.40;5.23;;;;;;;17.34;61.81;102983.59;11315829;26;20346;-62
2024/04/11 20:24:59;;;;;;;8.40;5.10;;;;;;;17.35;61.94;102992.47;11278703;26;20220;-62
2024/04/11 20:29:59;;;;;;;7.53;5.63;;;;;;;17.34;61.27;102988.16;11259469;26;20014;-61
2024/04/11 20:35:22;;;;;;;7.95;5.20;;;;;;;17.35;61.79;102993.28;11328822;26;20030;-61
2024/04/11 20:40:44;;;;;;;8.98;4.93;;;;;;;17.40;61.49;102993.38;11276219;26;20013;-62
2024/04/11 20:45:48;;;;;;;9.27;6.00;;;;;;;17.41;61.54;102986.19;11271246;26;20415;-61
2024/04/11 21:33:32;;;;;;;6.17;4.73;;;;;;;17.39;61.53;102977.53;11286483;26;20031;-61
2024/04/11 21:38:33;;;;;;;8.15;4.43;;;;;;;17.37;61.86;102974.25;11274194;26;20080;-61
2024/04/11 21:43:34;;;;;;;5.88;4.38;;;;;;;17.36;61.41;102975.31;11288289;26;19994;-60
2024/04/11 21:48:40;;;;;;;7.23;3.67;;;;;;;17.35;61.62;102985.22;11338247;26;19999;-61
2024/04/11 21:53:40;;;;;;;5.85;3.75;;;;;;;17.33;61.61;102984.66;11270562;26;20549;-61
2024/04/11 21:58:40;;;;;;;6.55;5.32;;;;;;;17.34;61.23;102988.16;11273900;26;19994;-61
2024/04/11 22:03:41;;;;;;;6.60;4.00;;;;;;;17.33;61.22;102998.06;11297677;26;20411;-61
2024/04/11 22:08:44;;;;;;;5.87;4.17;;;;;;;17.34;61.38;102998.88;11348632;26;20235;-61
2024/04/11 22:13:47;;;;;;;6.38;4.25;;;;;;;17.32;61.17;102998.28;11287243;26;20236;-61
2024/04/11 22:18:58;;;;;;;5.60;3.83;;;;;;;17.34;61.15;102999.69;11273881;26;20454;-61
2024/04/11 22:23:59;;;;;;;7.25;4.40;;;;;;;17.34;61.36;102993.50;11274544;26;19995;-61
2024/04/11 22:29:03;;;;;;;5.72;4.65;;;;;;;17.34;61.36;102996.19;11231054;26;20334;-61
2024/04/11 22:34:10;;;;;;;5.68;4.07;;;;;;;17.32;61.33;102993.75;11283745;26;19999;-61
2024/04/11 22:39:20;;;;;;;6.78;3.67;;;;;;;17.32;61.61;102984.88;11272418;26;20035;-62
2024/04/11 22:44:20;;;;;;;;;;;;;;;17.33;61.53;102994.56;11274163;26;20075;-62
2024/04/11 22:49:22;;;;;;;6.80;4.07;;;;;;;17.32;61.01;102988.38;11274548;26;20069;-61
2024/04/11 22:54:22;;;;;;;7.10;4.37;;;;;;;17.33;61.20;102981.16;11348349;26;19994;-61
2024/04/11 22:59:35;;;;;;;4.43;3.80;;;;;;;17.36;61.40;102986.03;11345888;26;20317;-60
2024/04/11 23:04:42;;;;;;;6.43;4.68;;;;;;;17.37;60.65;102987.69;11304546;26;20336;-62
2024/04/11 23:09:52;;;;;;;5.78;4.13;;;;;;;17.36;61.12;102978.81;11263645;26;19999;-62
2024/04/11 23:15:11;;;;;;;5.72;4.40;;;;;;;17.37;60.92;102983.13;11335401;26;20505;-60
2024/04/11 23:20:23;;;;;;;5.07;3.92;;;;;;;17.36;61.08;102992.22;11339324;26;20013;-62
2024/04/11 23:25:24;;;;;;;5.72;3.88;;;;;;;17.38;60.92;102982.06;11346393;26;20505;-61
2024/04/11 23:30:28;;;;;;;4.13;3.45;;;;;;;17.37;60.97;102980.44;11344370;26;20568;-58
2024/04/11 23:35:31;;;;;;;4.68;3.55;;;;;;;17.38;61.23;102981.25;11286561;26;20011;-59
2024/04/11 23:40:39;;;;;;;6.93;4.03;;;;;;;17.39;61.15;102994.44;11270659;26;19999;-59
2024/04/11 23:45:40;;;;;;;5.15;3.65;;;;;;;17.38;60.84;102997.34;11315603;26;20449;-59
2024/04/11 23:50:43;;;;;;;5.35;3.65;;;;;;;17.36;60.98;102997.59;11318616;26;20379;-58
